sensor_id;sensor_type;location;lat;lon;timestamp;P1;durP1;ratioP1;P2;durP2;ratioP2
64710;SDS011;51139;45.626;6.850;2023-07-24T00:02:03;11.95;;;5.82;;
64710;SDS011;51139;45.626;6.850;2023-07-24T00:04:29;10.55;;;5.50;;
64710;SDS011;51139;45.626;6.850;2023-07-24T00:06:55;10.77;;;5.78;;
64710;SDS011;51139;45.626;6.850;2023-07-24T00:09:21;9.82;;;5.72;;
64710;SDS011;51139;45.626;6.850;2023-07-24T00:11:46;11.07;;;5.53;;
64710;SDS011;51139;45.626;6.850;2023-07-24T00:14:12;9.18;;;5.22;;
64710;SDS011;51139;45.626;6.850;2023-07-24T00:16:37;10.63;;;5.45;;
64710;SDS011;51139;45.626;6.850;2023-07-24T00:19:03;9.88;;;4.93;;
64710;SDS011;51139;45.626;6.850;2023-07-24T00:21:28;9.02;;;5.20;;
64710;SDS011;51139;45.626;6.850;2023-07-24T00:23:53;10.48;;;5.63;;
64710;SDS011;51139;45.626;6.850;2023-07-24T00:26:19;10.60;;;5.35;;
64710;SDS011;51139;45.626;6.850;2023-07-24T00:28:44;8.73;;;5.18;;
64710;SDS011;51139;45.626;6.850;2023-07-24T00:31:09;9.40;;;5.35;;
64710;SDS011;51139;45.626;6.850;2023-07-24T00:33:35;9.80;;;5.38;;
64710;SDS011;51139;45.626;6.850;2023-07-24T00:36:00;8.38;;;5.05;;
64710;SDS011;51139;45.626;6.850;2023-07-24T00:38:26;9.27;;;4.93;;
64710;SDS011;51139;45.626;6.850;2023-07-24T00:40:51;10.52;;;5.40;;
64710;SDS011;51139;45.626;6.850;2023-07-24T00:43:16;10.85;;;5.75;;
64710;SDS011;51139;45.626;6.850;2023-07-24T00:45:42;8.10;;;4.68;;
64710;SDS011;51139;45.626;6.850;2023-07-24T00:48:10;8.98;;;4.90;;
64710;SDS011;51139;45.626;6.850;2023-07-24T00:50:35;9.05;;;5.22;;
64710;SDS011;51139;45.626;6.850;2023-07-24T00:53:02;10.02;;;4.85;;
64710;SDS011;51139;45.626;6.850;2023-07-24T00:55:28;9.52;;;4.57;;
64710;SDS011;51139;45.626;6.850;2023-07-24T00:57:54;8.68;;;4.80;;
64710;SDS011;51139;45.626;6.850;2023-07-24T01:00:21;10.27;;;4.68;;
64710;SDS011;51139;45.626;6.850;2023-07-24T01:02:47;7.85;;;4.20;;
64710;SDS011;51139;45.626;6.850;2023-07-24T01:05:13;8.07;;;4.70;;
64710;SDS011;51139;45.626;6.850;2023-07-24T01:07:39;8.50;;;4.53;;
64710;SDS011;51139;45.626;6.850;2023-07-24T01:10:05;7.65;;;4.45;;
64710;SDS011;51139;45.626;6.850;2023-07-24T01:12:35;7.15;;;4.57;;
64710;SDS011;51139;45.626;6.850;2023-07-24T01:15:03;6.97;;;4.33;;
64710;SDS011;51139;45.626;6.850;2023-07-24T01:17:38;8.90;;;4.95;;
64710;SDS011;51139;45.626;6.850;2023-07-24T01:20:07;9.20;;;5.03;;
64710;SDS011;51139;45.626;6.850;2023-07-24T01:22:38;9.13;;;4.50;;
64710;SDS011;51139;45.626;6.850;2023-07-24T01:27:56;8.48;;;5.07;;
64710;SDS011;51139;45.626;6.850;2023-07-24T01:30:22;7.95;;;4.25;;
64710;SDS011;51139;45.626;6.850;2023-07-24T01:32:47;7.32;;;4.15;;
64710;SDS011;51139;45.626;6.850;2023-07-24T01:35:13;8.55;;;4.25;;
64710;SDS011;51139;45.626;6.850;2023-07-24T01:37:39;7.97;;;4.43;;
64710;SDS011;51139;45.626;6.850;2023-07-24T01:40:06;9.07;;;4.50;;
64710;SDS011;51139;45.626;6.850;2023-07-24T01:42:35;6.85;;;4.20;;
64710;SDS011;51139;45.626;6.850;2023-07-24T01:45:01;8.45;;;4.22;;
64710;SDS011;51139;45.626;6.850;2023-07-24T01:47:28;8.10;;;4.88;;
64710;SDS011;51139;45.626;6.850;2023-07-24T01:49:54;7.07;;;4.15;;
64710;SDS011;51139;45.626;6.850;2023-07-24T01:52:20;9.18;;;4.13;;
64710;SDS011;51139;45.626;6.850;2023-07-24T01:54:45;7.05;;;3.42;;
64710;SDS011;51139;45.626;6.850;2023-07-24T01:57:11;7.78;;;4.53;;
64710;SDS011;51139;45.626;6.850;2023-07-24T01:59:36;6.20;;;3.88;;
64710;SDS011;51139;45.626;6.850;2023-07-24T02:02:02;6.43;;;3.90;;
64710;SDS011;51139;45.626;6.850;2023-07-24T02:04:27;7.18;;;4.03;;
64710;SDS011;51139;45.626;6.850;2023-07-24T02:06:52;7.70;;;3.83;;
64710;SDS011;51139;45.626;6.850;2023-07-24T02:09:18;7.53;;;3.90;;
64710;SDS011;51139;45.626;6.850;2023-07-24T02:11:44;8.27;;;4.32;;
64710;SDS011;51139;45.626;6.850;2023-07-24T02:14:09;7.60;;;4.85;;
64710;SDS011;51139;45.626;6.850;2023-07-24T02:16:36;9.38;;;4.82;;
64710;SDS011;51139;45.626;6.850;2023-07-24T02:19:01;7.55;;;4.15;;
64710;SDS011;51139;45.626;6.850;2023-07-24T02:21:27;9.27;;;5.63;;
64710;SDS011;51139;45.626;6.850;2023-07-24T02:23:52;8.30;;;4.85;;
64710;SDS011;51139;45.626;6.850;2023-07-24T02:26:17;9.52;;;5.88;;
64710;SDS011;51139;45.626;6.850;2023-07-24T02:28:43;7.22;;;4.47;;
64710;SDS011;51139;45.626;6.850;2023-07-24T02:31:08;8.52;;;5.10;;
64710;SDS011;51139;45.626;6.850;2023-07-24T02:33:33;9.07;;;4.88;;
64710;SDS011;51139;45.626;6.850;2023-07-24T02:36:00;9.25;;;4.88;;
64710;SDS011;51139;45.626;6.850;2023-07-24T02:38:26;7.57;;;4.43;;
64710;SDS011;51139;45.626;6.850;2023-07-24T02:40:51;8.07;;;4.18;;
64710;SDS011;51139;45.626;6.850;2023-07-24T02:43:16;8.27;;;4.95;;
64710;SDS011;51139;45.626;6.850;2023-07-24T02:45:42;7.55;;;4.20;;
64710;SDS011;51139;45.626;6.850;2023-07-24T02:48:07;5.53;;;2.70;;
64710;SDS011;51139;45.626;6.850;2023-07-24T02:50:33;5.95;;;3.70;;
64710;SDS011;51139;45.626;6.850;2023-07-24T02:52:59;7.75;;;3.72;;
64710;SDS011;51139;45.626;6.850;2023-07-24T02:55:24;9.40;;;5.25;;
64710;SDS011;51139;45.626;6.850;2023-07-24T02:57:50;12.10;;;6.13;;
64710;SDS011;51139;45.626;6.850;2023-07-24T03:00:15;9.32;;;6.10;;
64710;SDS011;51139;45.626;6.850;2023-07-24T03:02:41;13.55;;;7.35;;
64710;SDS011;51139;45.626;6.850;2023-07-24T03:05:06;11.45;;;6.25;;
64710;SDS011;51139;45.626;6.850;2023-07-24T03:07:32;11.40;;;6.60;;
64710;SDS011;51139;45.626;6.850;2023-07-24T03:09:58;12.90;;;6.72;;
64710;SDS011;51139;45.626;6.850;2023-07-24T03:12:23;13.65;;;5.75;;
64710;SDS011;51139;45.626;6.850;2023-07-24T03:14:49;8.52;;;5.03;;
64710;SDS011;51139;45.626;6.850;2023-07-24T03:17:14;7.43;;;4.60;;
64710;SDS011;51139;45.626;6.850;2023-07-24T03:19:40;6.93;;;3.90;;
64710;SDS011;51139;45.626;6.850;2023-07-24T03:22:06;6.68;;;3.78;;
64710;SDS011;51139;45.626;6.850;2023-07-24T03:24:31;7.47;;;4.10;;
64710;SDS011;51139;45.626;6.850;2023-07-24T03:26:57;8.57;;;5.10;;
64710;SDS011;51139;45.626;6.850;2023-07-24T03:29:22;8.52;;;4.80;;
64710;SDS011;51139;45.626;6.850;2023-07-24T03:31:47;10.52;;;4.88;;
64710;SDS011;51139;45.626;6.850;2023-07-24T03:34:13;7.93;;;3.38;;
64710;SDS011;51139;45.626;6.850;2023-07-24T03:36:38;6.72;;;3.13;;
64710;SDS011;51139;45.626;6.850;2023-07-24T03:39:06;5.50;;;3.05;;
64710;SDS011;51139;45.626;6.850;2023-07-24T03:41:32;6.22;;;2.65;;
64710;SDS011;51139;45.626;6.850;2023-07-24T03:43:57;4.40;;;2.17;;
64710;SDS011;51139;45.626;6.850;2023-07-24T03:46:23;3.25;;;1.90;;
64710;SDS011;51139;45.626;6.850;2023-07-24T03:48:48;3.50;;;1.80;;
64710;SDS011;51139;45.626;6.850;2023-07-24T03:51:15;3.00;;;1.60;;
64710;SDS011;51139;45.626;6.850;2023-07-24T03:53:41;3.17;;;1.60;;
64710;SDS011;51139;45.626;6.850;2023-07-24T03:56:06;3.22;;;1.70;;
64710;SDS011;51139;45.626;6.850;2023-07-24T03:58:31;2.50;;;1.45;;
64710;SDS011;51139;45.626;6.850;2023-07-24T04:00:57;3.58;;;1.40;;
64710;SDS011;51139;45.626;6.850;2023-07-24T04:03:22;2.63;;;1.30;;
64710;SDS011;51139;45.626;6.850;2023-07-24T04:05:47;2.05;;;1.23;;
64710;SDS011;51139;45.626;6.850;2023-07-24T04:08:13;2.50;;;1.20;;
64710;SDS011;51139;45.626;6.850;2023-07-24T04:10:38;2.38;;;1.30;;
64710;SDS011;51139;45.626;6.850;2023-07-24T04:13:04;2.42;;;1.35;;
64710;SDS011;51139;45.626;6.850;2023-07-24T04:15:29;3.05;;;1.70;;
64710;SDS011;51139;45.626;6.850;2023-07-24T04:17:55;2.42;;;1.15;;
64710;SDS011;51139;45.626;6.850;2023-07-24T04:20:20;2.30;;;1.10;;
64710;SDS011;51139;45.626;6.850;2023-07-24T04:22:45;2.50;;;1.23;;
64710;SDS011;51139;45.626;6.850;2023-07-24T04:25:11;2.47;;;1.30;;
64710;SDS011;51139;45.626;6.850;2023-07-24T04:27:36;3.58;;;1.40;;
64710;SDS011;51139;45.626;6.850;2023-07-24T04:30:01;2.45;;;1.30;;
64710;SDS011;51139;45.626;6.850;2023-07-24T04:32:27;2.50;;;1.20;;
64710;SDS011;51139;45.626;6.850;2023-07-24T04:34:52;3.17;;;1.40;;
64710;SDS011;51139;45.626;6.850;2023-07-24T04:37:18;3.47;;;1.70;;
64710;SDS011;51139;45.626;6.850;2023-07-24T04:39:43;4.22;;;1.58;;
64710;SDS011;51139;45.626;6.850;2023-07-24T04:42:09;4.65;;;1.88;;
64710;SDS011;51139;45.626;6.850;2023-07-24T04:44:34;3.75;;;1.52;;
64710;SDS011;51139;45.626;6.850;2023-07-24T04:47:00;2.33;;;1.40;;
64710;SDS011;51139;45.626;6.850;2023-07-24T04:49:28;2.85;;;1.42;;
64710;SDS011;51139;45.626;6.850;2023-07-24T04:51:54;3.50;;;1.95;;
64710;SDS011;51139;45.626;6.850;2023-07-24T04:54:20;5.47;;;2.00;;
64710;SDS011;51139;45.626;6.850;2023-07-24T04:56:45;5.25;;;2.10;;
64710;SDS011;51139;45.626;6.850;2023-07-24T04:59:10;4.32;;;1.92;;
64710;SDS011;51139;45.626;6.850;2023-07-24T05:01:36;4.47;;;2.10;;
64710;SDS011;51139;45.626;6.850;2023-07-24T05:04:01;3.75;;;1.75;;
64710;SDS011;51139;45.626;6.850;2023-07-24T05:06:26;4.15;;;2.15;;
64710;SDS011;51139;45.626;6.850;2023-07-24T05:08:52;3.40;;;2.00;;
64710;SDS011;51139;45.626;6.850;2023-07-24T05:11:18;3.28;;;1.98;;
64710;SDS011;51139;45.626;6.850;2023-07-24T05:13:43;3.97;;;2.20;;
64710;SDS011;51139;45.626;6.850;2023-07-24T05:16:09;4.97;;;2.08;;
64710;SDS011;51139;45.626;6.850;2023-07-24T05:18:34;5.93;;;1.90;;
64710;SDS011;51139;45.626;6.850;2023-07-24T05:20:59;3.67;;;2.00;;
64710;SDS011;51139;45.626;6.850;2023-07-24T05:23:25;4.10;;;1.98;;
64710;SDS011;51139;45.626;6.850;2023-07-24T05:26:00;8.95;;;3.42;;
64710;SDS011;51139;45.626;6.850;2023-07-24T05:28:26;8.05;;;2.92;;
64710;SDS011;51139;45.626;6.850;2023-07-24T05:30:52;5.05;;;2.13;;
64710;SDS011;51139;45.626;6.850;2023-07-24T05:33:18;6.45;;;2.60;;
64710;SDS011;51139;45.626;6.850;2023-07-24T05:35:43;6.00;;;2.58;;
64710;SDS011;51139;45.626;6.850;2023-07-24T05:38:08;6.03;;;2.65;;
64710;SDS011;51139;45.626;6.850;2023-07-24T05:40:34;4.75;;;2.00;;
64710;SDS011;51139;45.626;6.850;2023-07-24T05:43:00;5.25;;;3.30;;
64710;SDS011;51139;45.626;6.850;2023-07-24T05:45:26;5.82;;;3.00;;
64710;SDS011;51139;45.626;6.850;2023-07-24T05:47:52;5.45;;;2.63;;
64710;SDS011;51139;45.626;6.850;2023-07-24T05:50:17;171.63;;;10.43;;
64710;SDS011;51139;45.626;6.850;2023-07-24T05:52:43;7.60;;;2.65;;
64710;SDS011;51139;45.626;6.850;2023-07-24T05:55:08;4.38;;;2.05;;
64710;SDS011;51139;45.626;6.850;2023-07-24T05:57:33;3.03;;;1.85;;
64710;SDS011;51139;45.626;6.850;2023-07-24T05:59:59;3.22;;;1.90;;
64710;SDS011;51139;45.626;6.850;2023-07-24T06:02:24;4.88;;;2.45;;
64710;SDS011;51139;45.626;6.850;2023-07-24T06:04:49;5.72;;;2.28;;
64710;SDS011;51139;45.626;6.850;2023-07-24T06:07:15;4.68;;;2.03;;
64710;SDS011;51139;45.626;6.850;2023-07-24T06:09:40;6.68;;;2.45;;
64710;SDS011;51139;45.626;6.850;2023-07-24T06:12:06;3.70;;;2.00;;
64710;SDS011;51139;45.626;6.850;2023-07-24T06:14:31;3.22;;;2.03;;
64710;SDS011;51139;45.626;6.850;2023-07-24T06:16:56;5.82;;;2.38;;
64710;SDS011;51139;45.626;6.850;2023-07-24T06:19:22;4.65;;;2.38;;
64710;SDS011;51139;45.626;6.850;2023-07-24T06:21:47;4.57;;;2.38;;
64710;SDS011;51139;45.626;6.850;2023-07-24T06:24:12;5.55;;;2.30;;
64710;SDS011;51139;45.626;6.850;2023-07-24T06:26:38;5.80;;;2.20;;
64710;SDS011;51139;45.626;6.850;2023-07-24T06:29:04;4.57;;;2.65;;
64710;SDS011;51139;45.626;6.850;2023-07-24T06:31:30;3.92;;;2.53;;
64710;SDS011;51139;45.626;6.850;2023-07-24T06:33:55;7.35;;;3.55;;
64710;SDS011;51139;45.626;6.850;2023-07-24T06:36:20;319.33;;;16.52;;
64710;SDS011;51139;45.626;6.850;2023-07-24T06:38:46;7.78;;;3.35;;
64710;SDS011;51139;45.626;6.850;2023-07-24T06:41:12;5.13;;;2.92;;
64710;SDS011;51139;45.626;6.850;2023-07-24T06:43:40;5.30;;;2.85;;
64710;SDS011;51139;45.626;6.850;2023-07-24T06:46:06;6.63;;;2.90;;
64710;SDS011;51139;45.626;6.850;2023-07-24T06:48:32;4.75;;;2.53;;
64710;SDS011;51139;45.626;6.850;2023-07-24T06:50:57;7.22;;;2.80;;
64710;SDS011;51139;45.626;6.850;2023-07-24T06:53:22;4.38;;;2.72;;
64710;SDS011;51139;45.626;6.850;2023-07-24T06:55:48;5.60;;;2.72;;
64710;SDS011;51139;45.626;6.850;2023-07-24T06:58:13;5.45;;;3.00;;
64710;SDS011;51139;45.626;6.850;2023-07-24T07:00:38;4.18;;;2.35;;
64710;SDS011;51139;45.626;6.850;2023-07-24T07:03:04;5.18;;;2.65;;
64710;SDS011;51139;45.626;6.850;2023-07-24T07:05:31;3.58;;;1.70;;
64710;SDS011;51139;45.626;6.850;2023-07-24T07:07:57;5.47;;;2.50;;
64710;SDS011;51139;45.626;6.850;2023-07-24T07:10:22;4.70;;;2.42;;
64710;SDS011;51139;45.626;6.850;2023-07-24T07:12:47;4.55;;;2.00;;
64710;SDS011;51139;45.626;6.850;2023-07-24T07:15:13;4.90;;;2.53;;
64710;SDS011;51139;45.626;6.850;2023-07-24T07:17:42;4.97;;;2.65;;
64710;SDS011;51139;45.626;6.850;2023-07-24T07:20:07;5.50;;;2.53;;
64710;SDS011;51139;45.626;6.850;2023-07-24T07:22:32;4.80;;;2.17;;
64710;SDS011;51139;45.626;6.850;2023-07-24T07:24:58;4.80;;;2.65;;
64710;SDS011;51139;45.626;6.850;2023-07-24T07:27:23;5.70;;;2.45;;
64710;SDS011;51139;45.626;6.850;2023-07-24T07:29:48;4.55;;;2.30;;
64710;SDS011;51139;45.626;6.850;2023-07-24T07:32:14;5.57;;;2.58;;
64710;SDS011;51139;45.626;6.850;2023-07-24T07:34:39;5.72;;;2.47;;
64710;SDS011;51139;45.626;6.850;2023-07-24T07:37:05;4.18;;;2.30;;
64710;SDS011;51139;45.626;6.850;2023-07-24T07:39:31;6.68;;;2.42;;
64710;SDS011;51139;45.626;6.850;2023-07-24T07:41:57;5.00;;;2.53;;
64710;SDS011;51139;45.626;6.850;2023-07-24T07:44:22;5.82;;;2.72;;
64710;SDS011;51139;45.626;6.850;2023-07-24T07:46:48;6.03;;;2.40;;
64710;SDS011;51139;45.626;6.850;2023-07-24T07:49:13;5.85;;;2.80;;
64710;SDS011;51139;45.626;6.850;2023-07-24T07:51:39;6.38;;;2.53;;
64710;SDS011;51139;45.626;6.850;2023-07-24T07:54:04;5.90;;;2.20;;
64710;SDS011;51139;45.626;6.850;2023-07-24T07:56:29;4.32;;;2.22;;
64710;SDS011;51139;45.626;6.850;2023-07-24T07:58:55;3.63;;;2.00;;
64710;SDS011;51139;45.626;6.850;2023-07-24T08:01:20;5.53;;;2.25;;
64710;SDS011;51139;45.626;6.850;2023-07-24T08:03:45;8.63;;;3.50;;
64710;SDS011;51139;45.626;6.850;2023-07-24T08:06:11;6.05;;;2.75;;
64710;SDS011;51139;45.626;6.850;2023-07-24T08:08:37;6.60;;;3.17;;
64710;SDS011;51139;45.626;6.850;2023-07-24T08:11:06;4.80;;;2.45;;
64710;SDS011;51139;45.626;6.850;2023-07-24T08:13:32;4.00;;;1.88;;
64710;SDS011;51139;45.626;6.850;2023-07-24T08:15:58;5.18;;;2.88;;
64710;SDS011;51139;45.626;6.850;2023-07-24T08:18:24;8.38;;;2.63;;
64710;SDS011;51139;45.626;6.850;2023-07-24T08:20:50;7.50;;;2.72;;
64710;SDS011;51139;45.626;6.850;2023-07-24T08:23:16;7.63;;;2.63;;
64710;SDS011;51139;45.626;6.850;2023-07-24T08:25:50;7.30;;;2.83;;
64710;SDS011;51139;45.626;6.850;2023-07-24T08:28:24;6.53;;;2.80;;
64710;SDS011;51139;45.626;6.850;2023-07-24T08:30:56;5.55;;;2.22;;
64710;SDS011;51139;45.626;6.850;2023-07-24T08:33:26;3.95;;;2.20;;
64710;SDS011;51139;45.626;6.850;2023-07-24T08:35:59;8.65;;;2.70;;
64710;SDS011;51139;45.626;6.850;2023-07-24T08:38:25;6.80;;;2.47;;
64710;SDS011;51139;45.626;6.850;2023-07-24T08:41:04;4.40;;;2.25;;
64710;SDS011;51139;45.626;6.850;2023-07-24T08:43:34;6.10;;;2.78;;
64710;SDS011;51139;45.626;6.850;2023-07-24T08:46:01;5.70;;;2.47;;
64710;SDS011;51139;45.626;6.850;2023-07-24T08:48:46;7.10;;;3.50;;
64710;SDS011;51139;45.626;6.850;2023-07-24T08:51:12;7.57;;;2.80;;
64710;SDS011;51139;45.626;6.850;2023-07-24T08:53:40;7.35;;;3.40;;
64710;SDS011;51139;45.626;6.850;2023-07-24T08:56:07;5.10;;;2.53;;
64710;SDS011;51139;45.626;6.850;2023-07-24T08:58:34;7.47;;;2.90;;
64710;SDS011;51139;45.626;6.850;2023-07-24T09:01:00;7.97;;;3.15;;
64710;SDS011;51139;45.626;6.850;2023-07-24T09:03:27;7.40;;;3.08;;
64710;SDS011;51139;45.626;6.850;2023-07-24T09:05:53;6.00;;;2.88;;
64710;SDS011;51139;45.626;6.850;2023-07-24T09:08:31;9.02;;;3.35;;
64710;SDS011;51139;45.626;6.850;2023-07-24T09:10:59;9.60;;;3.47;;
64710;SDS011;51139;45.626;6.850;2023-07-24T09:13:25;7.85;;;3.33;;
64710;SDS011;51139;45.626;6.850;2023-07-24T09:15:51;10.00;;;3.55;;
64710;SDS011;51139;45.626;6.850;2023-07-24T09:18:16;7.60;;;3.08;;
64710;SDS011;51139;45.626;6.850;2023-07-24T09:20:43;7.35;;;3.90;;
64710;SDS011;51139;45.626;6.850;2023-07-24T09:23:09;7.43;;;3.60;;
64710;SDS011;51139;45.626;6.850;2023-07-24T09:25:37;5.50;;;2.78;;
64710;SDS011;51139;45.626;6.850;2023-07-24T09:28:13;5.75;;;3.40;;
64710;SDS011;51139;45.626;6.850;2023-07-24T09:30:40;6.50;;;3.42;;
64710;SDS011;51139;45.626;6.850;2023-07-24T09:33:06;9.05;;;3.10;;
64710;SDS011;51139;45.626;6.850;2023-07-24T09:35:33;5.88;;;3.22;;
64710;SDS011;51139;45.626;6.850;2023-07-24T09:38:05;10.15;;;3.30;;
64710;SDS011;51139;45.626;6.850;2023-07-24T09:40:42;10.48;;;3.25;;
64710;SDS011;51139;45.626;6.850;2023-07-24T09:45:45;6.85;;;3.30;;
64710;SDS011;51139;45.626;6.850;2023-07-24T09:48:12;10.55;;;3.25;;
64710;SDS011;51139;45.626;6.850;2023-07-24T09:50:40;6.90;;;3.40;;
64710;SDS011;51139;45.626;6.850;2023-07-24T09:53:08;6.97;;;2.95;;
64710;SDS011;51139;45.626;6.850;2023-07-24T09:56:02;6.55;;;3.40;;
64710;SDS011;51139;45.626;6.850;2023-07-24T09:58:29;9.98;;;3.60;;
64710;SDS011;51139;45.626;6.850;2023-07-24T10:00:57;11.93;;;4.05;;
64710;SDS011;51139;45.626;6.850;2023-07-24T10:03:22;8.98;;;3.30;;
64710;SDS011;51139;45.626;6.850;2023-07-24T10:05:48;8.90;;;3.17;;
64710;SDS011;51139;45.626;6.850;2023-07-24T10:08:15;6.60;;;2.80;;
64710;SDS011;51139;45.626;6.850;2023-07-24T10:10:41;7.10;;;3.10;;
64710;SDS011;51139;45.626;6.850;2023-07-24T10:13:07;7.00;;;2.97;;
64710;SDS011;51139;45.626;6.850;2023-07-24T10:15:36;5.38;;;3.13;;
64710;SDS011;51139;45.626;6.850;2023-07-24T10:18:03;7.35;;;3.88;;
64710;SDS011;51139;45.626;6.850;2023-07-24T10:20:36;9.73;;;3.63;;
64710;SDS011;51139;45.626;6.850;2023-07-24T10:23:06;8.13;;;3.30;;
64710;SDS011;51139;45.626;6.850;2023-07-24T10:30:28;7.32;;;3.78;;
64710;SDS011;51139;45.626;6.850;2023-07-24T10:32:54;7.70;;;3.20;;
64710;SDS011;51139;45.626;6.850;2023-07-24T10:35:45;6.97;;;3.22;;
64710;SDS011;51139;45.626;6.850;2023-07-24T10:38:13;8.05;;;3.10;;
64710;SDS011;51139;45.626;6.850;2023-07-24T10:40:40;7.70;;;3.17;;
64710;SDS011;51139;45.626;6.850;2023-07-24T10:43:07;6.00;;;3.00;;
64710;SDS011;51139;45.626;6.850;2023-07-24T10:45:58;4.55;;;3.03;;
64710;SDS011;51139;45.626;6.850;2023-07-24T10:48:24;6.57;;;3.10;;
64710;SDS011;51139;45.626;6.850;2023-07-24T10:50:51;4.85;;;2.75;;
64710;SDS011;51139;45.626;6.850;2023-07-24T10:53:17;7.55;;;3.33;;
64710;SDS011;51139;45.626;6.850;2023-07-24T10:55:44;8.35;;;3.40;;
64710;SDS011;51139;45.626;6.850;2023-07-24T10:58:12;7.40;;;3.45;;
64710;SDS011;51139;45.626;6.850;2023-07-24T11:00:39;8.77;;;3.50;;
64710;SDS011;51139;45.626;6.850;2023-07-24T11:03:09;9.95;;;3.58;;
64710;SDS011;51139;45.626;6.850;2023-07-24T11:05:38;7.53;;;3.65;;
64710;SDS011;51139;45.626;6.850;2023-07-24T11:08:12;12.43;;;5.93;;
64710;SDS011;51139;45.626;6.850;2023-07-24T11:10:51;7.80;;;3.28;;
64710;SDS011;51139;45.626;6.850;2023-07-24T11:13:22;12.38;;;4.15;;
64710;SDS011;51139;45.626;6.850;2023-07-24T11:15:49;6.95;;;3.38;;
64710;SDS011;51139;45.626;6.850;2023-07-24T11:18:15;14.50;;;4.05;;
64710;SDS011;51139;45.626;6.850;2023-07-24T11:23:09;5.45;;;3.03;;
64710;SDS011;51139;45.626;6.850;2023-07-24T11:25:35;8.40;;;3.45;;
64710;SDS011;51139;45.626;6.850;2023-07-24T11:28:01;7.07;;;3.60;;
64710;SDS011;51139;45.626;6.850;2023-07-24T11:30:29;8.40;;;3.45;;
64710;SDS011;51139;45.626;6.850;2023-07-24T11:32:54;8.27;;;3.97;;
64710;SDS011;51139;45.626;6.850;2023-07-24T11:35:24;9.13;;;3.85;;
64710;SDS011;51139;45.626;6.850;2023-07-24T11:37:50;7.13;;;3.70;;
64710;SDS011;51139;45.626;6.850;2023-07-24T11:40:16;9.57;;;4.47;;
64710;SDS011;51139;45.626;6.850;2023-07-24T11:42:44;9.40;;;3.85;;
64710;SDS011;51139;45.626;6.850;2023-07-24T11:45:10;7.65;;;4.20;;
64710;SDS011;51139;45.626;6.850;2023-07-24T11:48:08;10.05;;;4.15;;
64710;SDS011;51139;45.626;6.850;2023-07-24T11:50:27;8.48;;;4.65;;
64710;SDS011;51139;45.626;6.850;2023-07-24T11:52:52;7.57;;;4.22;;
64710;SDS011;51139;45.626;6.850;2023-07-24T11:55:29;10.38;;;4.47;;
64710;SDS011;51139;45.626;6.850;2023-07-24T11:58:00;9.07;;;4.47;;
64710;SDS011;51139;45.626;6.850;2023-07-24T12:00:26;11.25;;;4.50;;
64710;SDS011;51139;45.626;6.850;2023-07-24T12:02:53;8.10;;;3.90;;
64710;SDS011;51139;45.626;6.850;2023-07-24T12:07:49;8.95;;;3.88;;
64710;SDS011;51139;45.626;6.850;2023-07-24T12:10:24;8.40;;;4.28;;
64710;SDS011;51139;45.626;6.850;2023-07-24T12:12:52;8.38;;;4.25;;
64710;SDS011;51139;45.626;6.850;2023-07-24T12:15:17;9.43;;;4.57;;
64710;SDS011;51139;45.626;6.850;2023-07-24T12:17:43;8.95;;;4.47;;
64710;SDS011;51139;45.626;6.850;2023-07-24T12:20:08;12.40;;;4.40;;
64710;SDS011;51139;45.626;6.850;2023-07-24T12:22:37;12.05;;;4.72;;
64710;SDS011;51139;45.626;6.850;2023-07-24T12:25:04;16.65;;;4.80;;
64710;SDS011;51139;45.626;6.850;2023-07-24T12:27:30;10.13;;;4.60;;
64710;SDS011;51139;45.626;6.850;2023-07-24T12:29:56;10.20;;;4.45;;
64710;SDS011;51139;45.626;6.850;2023-07-24T12:32:21;10.57;;;4.88;;
64710;SDS011;51139;45.626;6.850;2023-07-24T12:34:48;10.93;;;4.85;;
64710;SDS011;51139;45.626;6.850;2023-07-24T12:37:15;11.07;;;4.72;;
64710;SDS011;51139;45.626;6.850;2023-07-24T12:39:40;11.52;;;5.38;;
64710;SDS011;51139;45.626;6.850;2023-07-24T12:42:06;14.82;;;5.10;;
64710;SDS011;51139;45.626;6.850;2023-07-24T12:44:32;12.18;;;4.63;;
64710;SDS011;51139;45.626;6.850;2023-07-24T12:46:57;9.57;;;4.82;;
64710;SDS011;51139;45.626;6.850;2023-07-24T12:49:23;11.60;;;4.40;;
64710;SDS011;51139;45.626;6.850;2023-07-24T12:51:48;11.95;;;4.70;;
64710;SDS011;51139;45.626;6.850;2023-07-24T12:54:13;11.55;;;4.72;;
64710;SDS011;51139;45.626;6.850;2023-07-24T12:56:39;14.13;;;4.68;;
64710;SDS011;51139;45.626;6.850;2023-07-24T12:59:05;10.90;;;4.50;;
64710;SDS011;51139;45.626;6.850;2023-07-24T13:01:30;11.45;;;4.63;;
64710;SDS011;51139;45.626;6.850;2023-07-24T13:03:56;11.05;;;4.72;;
64710;SDS011;51139;45.626;6.850;2023-07-24T13:06:21;11.23;;;5.00;;
64710;SDS011;51139;45.626;6.850;2023-07-24T13:08:47;10.48;;;5.07;;
64710;SDS011;51139;45.626;6.850;2023-07-24T13:11:13;8.05;;;4.70;;
64710;SDS011;51139;45.626;6.850;2023-07-24T13:13:38;10.57;;;4.55;;
64710;SDS011;51139;45.626;6.850;2023-07-24T13:16:03;10.40;;;4.50;;
64710;SDS011;51139;45.626;6.850;2023-07-24T13:18:29;10.77;;;4.60;;
64710;SDS011;51139;45.626;6.850;2023-07-24T13:20:55;10.15;;;4.65;;
64710;SDS011;51139;45.626;6.850;2023-07-24T13:23:21;11.20;;;4.68;;
64710;SDS011;51139;45.626;6.850;2023-07-24T13:25:46;15.50;;;7.05;;
64710;SDS011;51139;45.626;6.850;2023-07-24T13:28:12;13.40;;;7.43;;
64710;SDS011;51139;45.626;6.850;2023-07-24T13:30:37;16.38;;;9.70;;
64710;SDS011;51139;45.626;6.850;2023-07-24T13:33:02;9.35;;;4.68;;
64710;SDS011;51139;45.626;6.850;2023-07-24T13:35:28;10.52;;;4.60;;
64710;SDS011;51139;45.626;6.850;2023-07-24T13:37:53;12.68;;;4.35;;
64710;SDS011;51139;45.626;6.850;2023-07-24T13:40:18;10.95;;;4.20;;
64710;SDS011;51139;45.626;6.850;2023-07-24T13:42:44;10.32;;;4.72;;
64710;SDS011;51139;45.626;6.850;2023-07-24T13:45:09;10.63;;;4.45;;
64710;SDS011;51139;45.626;6.850;2023-07-24T13:47:35;10.85;;;4.35;;
64710;SDS011;51139;45.626;6.850;2023-07-24T13:50:00;10.60;;;4.65;;
64710;SDS011;51139;45.626;6.850;2023-07-24T13:52:28;9.55;;;4.57;;
64710;SDS011;51139;45.626;6.850;2023-07-24T13:54:54;10.85;;;4.50;;
64710;SDS011;51139;45.626;6.850;2023-07-24T13:57:19;11.52;;;4.85;;
64710;SDS011;51139;45.626;6.850;2023-07-24T13:59:44;13.63;;;4.80;;
64710;SDS011;51139;45.626;6.850;2023-07-24T14:02:10;13.90;;;4.93;;
64710;SDS011;51139;45.626;6.850;2023-07-24T14:04:37;10.60;;;4.53;;
64710;SDS011;51139;45.626;6.850;2023-07-24T14:07:02;11.63;;;4.38;;
64710;SDS011;51139;45.626;6.850;2023-07-24T14:09:28;11.57;;;4.90;;
64710;SDS011;51139;45.626;6.850;2023-07-24T14:11:53;10.00;;;4.32;;
64710;SDS011;51139;45.626;6.850;2023-07-24T14:14:18;10.90;;;4.82;;
64710;SDS011;51139;45.626;6.850;2023-07-24T14:16:44;10.55;;;4.70;;
64710;SDS011;51139;45.626;6.850;2023-07-24T14:19:09;15.68;;;4.82;;
64710;SDS011;51139;45.626;6.850;2023-07-24T14:21:35;11.00;;;5.47;;
64710;SDS011;51139;45.626;6.850;2023-07-24T14:24:00;10.52;;;4.70;;
64710;SDS011;51139;45.626;6.850;2023-07-24T14:26:25;10.40;;;5.95;;
64710;SDS011;51139;45.626;6.850;2023-07-24T14:28:50;10.75;;;5.20;;
64710;SDS011;51139;45.626;6.850;2023-07-24T14:31:16;13.30;;;5.18;;
64710;SDS011;51139;45.626;6.850;2023-07-24T14:33:41;10.70;;;4.82;;
64710;SDS011;51139;45.626;6.850;2023-07-24T14:36:06;16.88;;;5.43;;
64710;SDS011;51139;45.626;6.850;2023-07-24T14:38:32;10.25;;;5.00;;
64710;SDS011;51139;45.626;6.850;2023-07-24T14:40:57;13.27;;;5.80;;
64710;SDS011;51139;45.626;6.850;2023-07-24T14:43:22;11.32;;;5.78;;
64710;SDS011;51139;45.626;6.850;2023-07-24T14:45:48;17.25;;;10.02;;
64710;SDS011;51139;45.626;6.850;2023-07-24T14:48:13;24.30;;;8.45;;
64710;SDS011;51139;45.626;6.850;2023-07-24T14:50:39;19.45;;;7.40;;
64710;SDS011;51139;45.626;6.850;2023-07-24T14:53:05;13.98;;;5.85;;
64710;SDS011;51139;45.626;6.850;2023-07-24T14:55:30;10.98;;;5.85;;